Terminal Aerodrome Forecast
Issued by NWS

Home | Current Version | Previous Version | Text Only | Print | Product List | Glossary On
Versions: 1 2 3 4 5 6 7 8 9 10 11 12 13 14 15 16 17 18
000
FTUS45 KABQ 282339
TAFTCC
TAF
KTCC 282339Z 2900/2924 33012KT P6SM VCTS SCT040 BKN080CB
      TEMPO 2900/2902 VRB25G35KT 5SM TSRA BKN025CB
     FM290300 04015G22KT P6SM VCSH BKN035 OVC080
     FM290700 02010KT P6SM OVC035
     FM291600 09007KT P6SM SCT040 BKN080=

USA.gov is the U.S. government's official web portal to all federal, state and local government web resources and services.